createdAt,value
2022-12-19T00:01:59.688Z,-2.80
2022-12-19T00:04:27.788Z,-5.40
2022-12-19T00:06:58.728Z,-5.50
2022-12-19T00:09:27.355Z,-5.40
2022-12-19T00:11:55.520Z,-5.40
2022-12-19T00:14:24.950Z,-5.30
2022-12-19T00:16:53.027Z,-5.30
2022-12-19T00:19:21.596Z,-5.30
2022-12-19T00:21:49.766Z,-5.20
2022-12-19T00:24:20.823Z,-5.20
2022-12-19T00:26:50.451Z,-5.20
2022-12-19T00:29:18.477Z,-5.20
2022-12-19T00:35:10.185Z,-5.20
2022-12-19T00:37:38.915Z,-5.10
2022-12-19T00:40:17.827Z,-5.00
2022-12-19T00:42:51.730Z,-5.10
2022-12-19T00:45:22.088Z,-5.20
2022-12-19T00:48:04.451Z,-5.10
2022-12-19T00:50:35.097Z,-5.10
2022-12-19T00:53:03.286Z,-5.10
2022-12-19T00:55:31.397Z,-5.20
2022-12-19T00:57:59.638Z,-5.20
2022-12-19T01:00:29.011Z,-6.90
2022-12-19T01:02:57.217Z,-5.30
2022-12-19T01:05:25.306Z,-5.30
2022-12-19T01:07:55.207Z,-5.20
2022-12-19T01:10:23.379Z,-5.10
2022-12-19T01:12:50.434Z,-5.10
2022-12-19T01:15:20.539Z,-5.10
2022-12-19T01:17:49.425Z,-5.10
2022-12-19T01:20:21.386Z,-5.10
2022-12-19T01:23:00.256Z,-5.10
2022-12-19T01:25:28.856Z,-5.10
2022-12-19T01:27:57.292Z,-5.00
2022-12-19T01:30:26.645Z,-5.00
2022-12-19T01:32:56.807Z,-5.00
2022-12-19T01:35:26.169Z,-5.00
2022-12-19T01:38:05.696Z,-4.30
2022-12-19T01:43:07.727Z,-5.00
2022-12-19T01:45:43.533Z,-5.00
2022-12-19T01:48:18.637Z,-5.00
2022-12-19T01:51:01.820Z,-5.10
2022-12-19T01:53:36.646Z,-3.60
2022-12-19T01:56:16.816Z,-3.00
2022-12-19T01:58:47.096Z,-4.00
2022-12-19T02:01:16.598Z,-5.20
2022-12-19T02:03:47.269Z,-5.10
2022-12-19T02:06:19.975Z,-5.10
2022-12-19T02:08:49.589Z,-5.10
2022-12-19T02:13:47.896Z,-5.20
2022-12-19T02:16:30.075Z,-5.10
2022-12-19T02:19:09.746Z,-5.10
2022-12-19T02:21:54.747Z,-2.90
2022-12-19T02:25:00.133Z,-5.10
2022-12-19T02:27:52.965Z,-5.00
2022-12-19T02:30:44.077Z,-5.00
2022-12-19T02:33:17.363Z,-5.00
2022-12-19T02:35:50.002Z,-5.00
2022-12-19T02:38:26.424Z,-5.00
2022-12-19T02:41:02.623Z,-5.00
2022-12-19T02:43:34.029Z,-5.10
2022-12-19T02:46:06.391Z,-5.10
2022-12-19T02:48:35.242Z,-5.10
2022-12-19T02:51:03.474Z,-5.10
2022-12-19T02:53:31.593Z,-5.10
2022-12-19T02:56:30.530Z,-5.10
2022-12-19T02:59:14.645Z,-5.20
2022-12-19T03:01:50.290Z,-5.20
2022-12-19T03:04:31.692Z,-5.20
2022-12-19T03:07:07.669Z,-5.20
2022-12-19T03:09:42.186Z,-5.20
2022-12-19T03:12:17.981Z,-5.20
2022-12-19T03:14:48.279Z,-5.30
2022-12-19T03:17:18.657Z,-5.10
2022-12-19T03:19:46.871Z,-2.80
2022-12-19T03:22:15.030Z,-5.10
2022-12-19T03:24:43.233Z,-4.00
2022-12-19T03:27:15.709Z,-5.10
2022-12-19T03:29:48.539Z,-5.00
2022-12-19T03:32:21.574Z,-2.00
2022-12-19T03:34:53.830Z,-5.10
2022-12-19T03:37:25.452Z,-5.10
2022-12-19T03:40:01.347Z,-5.00
2022-12-19T03:42:49.049Z,-5.00
2022-12-19T03:45:23.455Z,-4.90
2022-12-19T03:47:58.480Z,-4.90
2022-12-19T03:50:33.161Z,-4.90
2022-12-19T03:53:12.626Z,-2.60
2022-12-19T03:55:48.475Z,-4.10
2022-12-19T03:58:21.961Z,-4.80
2022-12-19T04:00:53.126Z,-4.60
2022-12-19T04:03:23.838Z,-4.70
2022-12-19T04:05:53.904Z,-4.80
2022-12-19T04:08:23.868Z,-4.80
2022-12-19T04:10:56.477Z,-4.80
2022-12-19T04:13:29.786Z,-5.00
2022-12-19T04:16:07.771Z,-4.90
2022-12-19T04:18:38.575Z,-4.80
2022-12-19T04:21:13.483Z,-2.30
2022-12-19T04:23:47.522Z,-4.80
2022-12-19T04:26:19.871Z,-4.90
2022-12-19T04:28:51.446Z,-5.00
2022-12-19T04:31:21.150Z,-4.90
2022-12-19T04:36:19.467Z,-4.90
2022-12-19T04:38:47.594Z,-4.60
2022-12-19T04:41:15.697Z,-4.90
2022-12-19T04:43:43.970Z,-4.80
2022-12-19T04:46:12.214Z,-4.90
2022-12-19T04:48:40.366Z,-4.80
2022-12-19T04:51:10.642Z,-4.80
2022-12-19T04:56:08.748Z,-4.60
2022-12-19T04:58:36.934Z,-4.70
2022-12-19T05:01:06.250Z,-4.60
2022-12-19T05:06:08.200Z,-4.60
2022-12-19T05:08:38.483Z,-4.50
2022-12-19T05:13:36.277Z,-4.50
2022-12-19T05:16:07.566Z,-4.40
2022-12-19T05:18:36.685Z,-4.40
2022-12-19T05:21:05.504Z,-4.40
2022-12-19T05:23:34.267Z,-4.40
2022-12-19T05:26:09.583Z,-4.40
2022-12-19T05:28:37.638Z,-4.40
2022-12-19T05:31:07.755Z,-4.90
2022-12-19T05:36:04.894Z,-4.20
2022-12-19T05:38:33.239Z,-4.20
2022-12-19T05:41:01.714Z,-4.20
2022-12-19T05:48:29.050Z,-4.20
2022-12-19T05:50:57.299Z,-4.20
2022-12-19T05:53:27.530Z,-4.10
2022-12-19T05:56:04.950Z,-4.10
2022-12-19T05:58:34.652Z,-2.00
2022-12-19T06:01:04.308Z,-4.10
2022-12-19T06:03:32.462Z,-4.00
2022-12-19T06:06:04.478Z,-3.00
2022-12-19T06:11:01.754Z,-4.00
2022-12-19T06:13:31.481Z,-3.90
2022-12-19T06:16:01.844Z,-3.90
2022-12-19T06:18:30.727Z,-3.80
2022-12-19T06:21:00.461Z,-3.80
2022-12-19T06:23:30.275Z,-3.80
2022-12-19T06:25:59.060Z,-3.80
2022-12-19T06:28:27.839Z,-3.80
2022-12-19T06:30:57.314Z,-3.80
2022-12-19T06:33:30.328Z,-3.70
2022-12-19T06:38:30.697Z,-3.70
2022-12-19T06:41:16.231Z,-3.70
2022-12-19T06:43:46.916Z,-3.60
2022-12-19T06:46:17.484Z,-3.60
2022-12-19T06:51:15.670Z,-3.50
2022-12-19T06:53:44.131Z,-3.60
2022-12-19T06:56:14.392Z,-3.60
2022-12-19T06:58:42.633Z,-3.60
2022-12-19T07:01:18.267Z,-3.50
2022-12-19T07:03:49.336Z,-3.50
2022-12-19T07:06:18.687Z,-3.50
2022-12-19T07:11:15.534Z,-0.90
2022-12-19T07:13:43.545Z,-3.50
2022-12-19T07:18:41.821Z,-3.50
2022-12-19T07:21:12.403Z,-3.40
2022-12-19T07:23:42.001Z,-3.40
2022-12-19T07:26:10.215Z,-3.40
2022-12-19T07:28:38.890Z,-3.40
2022-12-19T07:31:07.193Z,-3.30
2022-12-19T07:33:35.307Z,-3.20
2022-12-19T07:36:03.427Z,-3.30
2022-12-19T07:38:33.102Z,-3.10
2022-12-19T07:41:02.671Z,-3.00
2022-12-19T07:43:31.040Z,-3.00
2022-12-19T07:45:59.302Z,-0.10
2022-12-19T07:48:28.798Z,-2.90
2022-12-19T07:50:57.008Z,-2.80
2022-12-19T07:53:25.519Z,-2.80
2022-12-19T07:55:55.095Z,-2.70
2022-12-19T07:58:23.322Z,-2.70
2022-12-19T08:00:56.239Z,-2.60
2022-12-19T08:03:24.610Z,-2.60
2022-12-19T08:05:52.761Z,-2.50
2022-12-19T08:08:21.421Z,-2.50
2022-12-19T08:10:49.523Z,-2.40
2022-12-19T08:15:47.771Z,-2.30
2022-12-19T08:18:15.869Z,-2.30
2022-12-19T08:20:47.419Z,-2.30
2022-12-19T08:23:15.507Z,-2.30
2022-12-19T08:25:43.705Z,-2.20
2022-12-19T08:28:11.747Z,-2.10
2022-12-19T08:33:09.975Z,-2.00
2022-12-19T08:35:38.002Z,-2.00
2022-12-19T08:38:06.551Z,-1.90
2022-12-19T08:40:35.324Z,-1.90
2022-12-19T08:43:03.384Z,-1.70
2022-12-19T08:45:31.391Z,-1.70
2022-12-19T08:48:00.893Z,-1.60
2022-12-19T08:50:28.865Z,-1.30
2022-12-19T08:52:56.944Z,-1.30
2022-12-19T08:55:25.659Z,-1.20
2022-12-19T09:00:29.962Z,-0.90
2022-12-19T09:02:58.390Z,-0.90
2022-12-19T09:05:58.413Z,-0.60
2022-12-19T09:08:16.829Z,-0.60
2022-12-19T09:10:45.077Z,-0.50
2022-12-19T09:15:42.161Z,-0.30
2022-12-19T09:18:10.426Z,-0.20
2022-12-19T09:23:11.270Z,-0.10
2022-12-19T09:25:40.474Z,-0.20
2022-12-19T09:30:58.768Z,0.00
2022-12-19T09:33:28.621Z,0.00
2022-12-19T09:36:00.887Z,0.00
2022-12-19T09:38:32.198Z,0.10
2022-12-19T09:41:36.457Z,0.10
2022-12-19T09:44:17.627Z,0.30
2022-12-19T09:46:51.967Z,0.30
2022-12-19T09:49:25.606Z,0.30
2022-12-19T09:52:06.011Z,0.30
2022-12-19T09:54:40.353Z,0.50
2022-12-19T09:57:16.573Z,0.50
2022-12-19T09:59:50.235Z,0.60
2022-12-19T10:02:34.768Z,0.70
2022-12-19T10:05:37.970Z,0.80
2022-12-19T10:08:09.460Z,0.50
2022-12-19T10:12:41.098Z,0.80
2022-12-19T10:13:57.824Z,0.80
2022-12-19T10:16:39.441Z,0.90
2022-12-19T10:19:11.295Z,0.90
2022-12-19T10:22:19.408Z,1.00
2022-12-19T10:25:08.556Z,0.90
2022-12-19T10:27:59.311Z,1.00
2022-12-19T10:30:32.211Z,0.90
2022-12-19T10:33:11.652Z,0.80
2022-12-19T10:35:49.420Z,1.00
2022-12-19T10:38:26.879Z,1.10
2022-12-19T10:41:13.415Z,1.10
2022-12-19T10:43:54.568Z,1.20
2022-12-19T10:46:41.887Z,1.20
2022-12-19T10:49:16.876Z,1.20
2022-12-19T10:51:56.472Z,1.20
2022-12-19T10:54:37.241Z,1.30
2022-12-19T10:57:25.500Z,1.30
2022-12-19T10:59:59.333Z,1.40
2022-12-19T11:02:44.653Z,1.40
2022-12-19T11:05:28.407Z,1.40
2022-12-19T11:08:05.605Z,1.40
2022-12-19T11:11:40.350Z,1.40
2022-12-19T11:19:27.895Z,1.30
2022-12-19T11:23:16.897Z,1.50
2022-12-19T11:29:18.922Z,1.40
2022-12-19T11:30:05.879Z,1.40
2022-12-19T11:30:41.453Z,1.30
2022-12-19T11:30:59.586Z,1.30
2022-12-19T11:34:06.750Z,1.40
2022-12-19T11:36:40.776Z,1.70
2022-12-19T11:39:19.188Z,1.70
2022-12-19T11:41:57.164Z,1.90
2022-12-19T11:44:31.465Z,2.10
2022-12-19T11:47:12.976Z,2.00
2022-12-19T11:49:45.578Z,2.10
2022-12-19T11:53:02.415Z,2.20
2022-12-19T11:55:21.677Z,2.30
2022-12-19T11:57:51.106Z,2.30
2022-12-19T12:00:24.456Z,2.40
2022-12-19T12:03:24.376Z,2.40
2022-12-19T12:05:56.640Z,2.60
2022-12-19T12:10:08.891Z,2.40
2022-12-19T12:22:19.209Z,2.30
2022-12-19T12:24:05.031Z,2.30
2022-12-19T12:30:13.747Z,2.30
2022-12-19T12:31:10.540Z,2.20
2022-12-19T12:31:43.269Z,2.30
2022-12-19T12:31:50.628Z,2.30
2022-12-19T12:35:30.455Z,2.30
2022-12-19T12:37:54.152Z,2.30
2022-12-19T12:38:54.432Z,2.40
2022-12-19T12:41:58.153Z,2.30
2022-12-19T12:44:33.103Z,2.30
2022-12-19T12:47:07.407Z,2.30
2022-12-19T12:49:40.493Z,2.30
2022-12-19T12:52:12.534Z,2.10
2022-12-19T12:54:47.466Z,2.30
2022-12-19T12:57:46.617Z,2.20
2022-12-19T13:00:21.805Z,2.30
2022-12-19T13:02:55.668Z,2.40
2022-12-19T13:05:55.533Z,2.30
2022-12-19T13:08:38.179Z,2.40
2022-12-19T13:11:34.153Z,2.50
2022-12-19T13:14:02.591Z,2.40
2022-12-19T13:16:51.039Z,2.60
2022-12-19T13:19:28.000Z,4.40
2022-12-19T13:22:19.284Z,2.50
2022-12-19T13:24:50.436Z,2.40
2022-12-19T13:27:39.801Z,2.50
2022-12-19T13:30:29.749Z,2.50
2022-12-19T13:33:11.935Z,2.50
2022-12-19T13:37:04.089Z,2.60
2022-12-19T13:41:47.260Z,2.30
2022-12-19T13:44:21.885Z,2.80
2022-12-19T13:49:29.542Z,2.80
2022-12-19T13:52:01.523Z,2.70
2022-12-19T13:54:35.382Z,2.60
2022-12-19T14:02:44.272Z,2.40
2022-12-19T14:05:44.506Z,2.30
2022-12-19T14:08:20.997Z,2.20
2022-12-19T14:11:33.562Z,2.20
2022-12-19T14:14:10.193Z,2.20
2022-12-19T14:16:44.367Z,2.00
2022-12-19T14:19:24.295Z,1.90
2022-12-19T14:22:10.855Z,1.80
2022-12-19T14:28:19.133Z,1.60
2022-12-19T14:30:28.719Z,1.50
2022-12-19T14:33:47.101Z,1.50
2022-12-19T14:36:10.212Z,1.40
2022-12-19T14:39:24.341Z,1.40
2022-12-19T14:42:01.734Z,1.70
2022-12-19T14:53:51.488Z,1.40
2022-12-19T14:54:31.033Z,1.30
2022-12-19T14:56:57.558Z,1.30
2022-12-19T14:59:46.241Z,1.20
2022-12-19T15:02:32.848Z,1.20
2022-12-19T15:05:07.061Z,1.10
2022-12-19T15:11:05.267Z,1.00
2022-12-19T15:14:58.507Z,0.90
2022-12-19T15:16:30.379Z,0.80
2022-12-19T15:19:00.556Z,0.80
2022-12-19T15:24:01.368Z,-0.50
2022-12-19T15:26:33.448Z,0.60
2022-12-19T15:31:35.850Z,0.50
2022-12-19T15:34:35.096Z,0.50
2022-12-19T15:37:06.132Z,0.40
2022-12-19T15:39:37.849Z,0.30
2022-12-19T15:42:08.967Z,0.30
2022-12-19T15:44:40.656Z,0.30
2022-12-19T15:47:17.760Z,0.30
2022-12-19T15:52:19.562Z,0.20
2022-12-19T15:57:30.461Z,0.10
2022-12-19T16:00:01.986Z,0.10
2022-12-19T16:03:04.418Z,0.10
2022-12-19T16:05:23.701Z,0.00
2022-12-19T16:10:23.969Z,-0.10
2022-12-19T16:12:55.616Z,-0.10
2022-12-19T16:15:28.935Z,-0.10
2022-12-19T16:17:59.221Z,-0.10
2022-12-19T16:20:29.135Z,-0.10
2022-12-19T16:25:35.201Z,-0.20
2022-12-19T16:28:05.779Z,-0.20
2022-12-19T16:30:36.291Z,-0.30
2022-12-19T16:38:23.304Z,-0.40
2022-12-19T16:40:54.171Z,-0.40
2022-12-19T16:43:30.000Z,-0.40
2022-12-19T16:48:35.615Z,-0.50
2022-12-19T16:51:11.144Z,-0.50
2022-12-19T16:53:42.499Z,-0.50
2022-12-19T16:56:22.539Z,-0.60
2022-12-19T17:01:29.342Z,-0.60
2022-12-19T17:09:16.818Z,-0.60
2022-12-19T17:11:50.523Z,-0.60
2022-12-19T17:14:21.321Z,-0.60
2022-12-19T17:16:55.327Z,-0.60
2022-12-19T17:19:27.813Z,-0.60
2022-12-19T17:22:04.868Z,-0.70
2022-12-19T17:27:10.778Z,-0.70
2022-12-19T17:32:10.403Z,-0.70
2022-12-19T17:34:40.023Z,-0.70
2022-12-19T17:37:10.917Z,-0.70
2022-12-19T17:39:42.160Z,-0.80
2022-12-19T17:42:23.824Z,-0.70
2022-12-19T17:44:53.973Z,-0.70
2022-12-19T17:47:25.748Z,-0.70
2022-12-19T17:52:25.238Z,-0.60
2022-12-19T17:54:55.049Z,-0.60
2022-12-19T17:57:28.165Z,-0.60
2022-12-19T18:02:27.588Z,-0.50
2022-12-19T18:07:27.905Z,-0.50
2022-12-19T18:12:27.890Z,-0.40
2022-12-19T18:17:28.657Z,-0.40
2022-12-19T18:22:36.313Z,-0.30
2022-12-19T18:30:12.403Z,-0.10
2022-12-19T18:32:54.841Z,-0.20
2022-12-19T18:35:27.895Z,0.00
2022-12-19T18:37:58.771Z,0.20
2022-12-19T18:41:31.562Z,0.30
2022-12-19T18:46:34.616Z,0.40
2022-12-19T18:51:33.965Z,0.50
2022-12-19T18:54:02.018Z,0.50
2022-12-19T18:56:31.595Z,0.40
2022-12-19T18:59:07.786Z,0.40
2022-12-19T19:01:42.115Z,0.40
2022-12-19T19:04:13.385Z,0.60
2022-12-19T19:06:50.313Z,0.60
2022-12-19T19:09:21.914Z,0.60
2022-12-19T19:11:50.839Z,0.60
2022-12-19T19:24:20.707Z,0.60
2022-12-19T19:26:57.039Z,0.60
2022-12-19T19:35:17.890Z,0.60
2022-12-19T19:40:15.663Z,0.60
2022-12-19T19:42:45.764Z,0.60
2022-12-19T19:45:14.487Z,0.60
2022-12-19T19:47:45.148Z,0.60
2022-12-19T20:00:19.610Z,0.40
2022-12-19T20:05:38.464Z,0.30
2022-12-19T20:10:36.746Z,0.30
2022-12-19T20:18:11.269Z,0.20
2022-12-19T20:23:08.874Z,0.10
2022-12-19T20:30:43.551Z,0.00
2022-12-19T20:33:13.673Z,0.00
2022-12-19T20:35:42.927Z,0.00
2022-12-19T20:38:11.891Z,-0.10
2022-12-19T21:12:12.120Z,-0.20
2022-12-19T21:19:02.204Z,-0.20
2022-12-19T21:21:35.290Z,-0.30
2022-12-19T21:24:58.897Z,-0.30
2022-12-19T21:28:32.813Z,-0.20
2022-12-19T21:32:18.830Z,-0.30
2022-12-19T21:43:30.298Z,-0.30
2022-12-19T21:46:08.456Z,-0.30
2022-12-19T21:48:39.575Z,-0.30
2022-12-19T21:53:39.790Z,-0.30
2022-12-19T21:56:21.472Z,-0.30
2022-12-19T21:58:51.296Z,-0.40
2022-12-19T22:03:51.546Z,-0.40
2022-12-19T22:06:27.968Z,-0.40
2022-12-19T22:08:58.208Z,-0.40
2022-12-19T22:11:30.793Z,-0.30
2022-12-19T22:14:00.740Z,-0.30
2022-12-19T22:16:30.410Z,1.20
2022-12-19T22:19:00.275Z,-0.30
2022-12-19T22:24:14.076Z,-0.30
2022-12-19T22:29:17.458Z,-0.20
2022-12-19T22:31:46.633Z,-0.30
2022-12-19T22:34:17.004Z,-0.20
2022-12-19T22:36:46.840Z,-0.20
2022-12-19T22:44:20.586Z,-0.10
2022-12-19T22:46:49.759Z,-0.10
2022-12-19T22:49:19.800Z,-0.10
2022-12-19T22:51:48.432Z,0.00
2022-12-19T22:54:16.830Z,0.00
2022-12-19T22:56:45.513Z,0.00
2022-12-19T22:59:15.632Z,0.00
2022-12-19T23:01:45.392Z,0.10
2022-12-19T23:04:15.862Z,0.10
2022-12-19T23:06:45.179Z,0.10
2022-12-19T23:09:16.181Z,0.20
2022-12-19T23:11:46.618Z,0.10
2022-12-19T23:14:18.619Z,0.20
2022-12-19T23:16:47.482Z,0.20
2022-12-19T23:19:17.058Z,0.20
2022-12-19T23:21:46.112Z,0.20
2022-12-19T23:24:14.900Z,0.20
2022-12-19T23:26:43.407Z,0.20
2022-12-19T23:29:13.732Z,0.10
2022-12-19T23:31:45.168Z,0.20
2022-12-19T23:34:14.517Z,0.20
2022-12-19T23:37:10.211Z,0.20
2022-12-19T23:39:32.101Z,0.10
2022-12-19T23:42:00.575Z,0.10
2022-12-19T23:44:30.009Z,0.10
2022-12-19T23:47:03.886Z,0.10
2022-12-19T23:49:33.002Z,0.10
2022-12-19T23:54:30.127Z,0.10
2022-12-19T23:56:59.263Z,0.10
2022-12-19T23:59:27.598Z,0.10
